Schellsburg, Pennsylvania
Current Conditions -  °F | °C
As of 12:55 PM on Monday 22 Dec 2014 (Local Time) from K2G9 Reporting Station
Scattered Clouds Scattered Clouds  
Wind Chill: 26°   Ceiling: Unl
Heat Index: 32°   Visibility: 10mi
Dew Point: 27°   Wind: 7mph
Humidity: 80%   Direction: 140°SE
Pressure: 30.07"   Gusts: NA
Location:  40.05°N, 78.64°W
Report Text: K2G9 221755Z AUTO 14006KT 10SM SCT012 00/M03 A3007 RMK AO2
Loading
Personal Weather Stations






























Interactive Weather Map New forecast layout! Learn more

10-Day Weather Forecast

Advertisements
Track Severe Weather on mobile